Time;durP1;ratioP1;P1;durP2;ratioP2;P2;SDS_P1;SDS_P2;PMS_P1;PMS_P2;Temp;Humidity;BMP_temperature;BMP_pressure;BME280_temperature;BME280_humidity;BME280_pressure;Samples;Min_cycle;Max_cycle;Signal;HPM_P1;HPM_P2
2021/10/10 00:00:17;;;;;;;39.65;23.05;;;;;;;12.33;82.47;102856.69;4996143;28;20026;-82
2021/10/10 00:02:42;;;;;;;38.22;24.60;;;;;;;12.33;82.53;102851.22;5012881;28;20034;-82
2021/10/10 00:05:08;;;;;;;38.58;23.58;;;;;;;12.32;82.64;102839.47;5013290;28;20542;-82
2021/10/10 00:07:33;;;;;;;38.03;22.38;;;;;;;12.33;82.49;102838.41;4996339;28;20034;-82
2021/10/10 00:09:58;;;;;;;38.28;23.70;;;;;;;12.34;82.68;102834.59;4978866;28;20050;-82
2021/10/10 00:12:24;;;;;;;41.10;24.27;;;;;;;12.34;82.89;102837.31;4992725;28;20029;-82
2021/10/10 00:14:49;;;;;;;39.80;24.50;;;;;;;12.35;82.78;102833.50;4992112;28;20060;-82
2021/10/10 00:17:15;;;;;;;43.40;24.17;;;;;;;12.39;83.14;102823.78;4992670;28;20497;-82
2021/10/10 00:19:40;;;;;;;38.47;22.83;;;;;;;12.39;83.13;102828.41;4975676;28;20041;-82
2021/10/10 00:22:07;;;;;;;46.35;23.75;;;;;;;12.40;83.20;102824.59;4992364;28;20038;-82
2021/10/10 00:24:32;;;;;;;37.40;24.25;;;;;;;12.42;82.77;102828.78;4977748;28;20026;-82
2021/10/10 00:26:57;;;;;;;36.38;24.13;;;;;;;12.42;82.78;102826.03;5010435;28;20037;-82
2021/10/10 00:29:23;;;;;;;47.22;22.52;;;;;;;12.43;82.73;102814.00;4994728;28;20042;-81
2021/10/10 00:31:48;;;;;;;28.13;18.92;;;;;;;12.46;82.42;102812.72;5012140;28;20033;-80
2021/10/10 00:34:14;;;;;;;35.42;20.20;;;;;;;12.49;82.17;102808.66;5011458;28;20029;-82
2021/10/10 00:36:39;;;;;;;25.77;19.17;;;;;;;12.50;81.94;102813.09;5005905;28;20389;-81
2021/10/10 00:39:05;;;;;;;37.15;19.30;;;;;;;12.52;81.75;102799.97;5011734;28;20029;-82
2021/10/10 00:41:30;;;;;;;34.05;19.83;;;;;;;12.54;81.23;102806.06;5005380;28;20033;-82
2021/10/10 00:43:55;;;;;;;31.38;19.92;;;;;;;12.54;80.92;102806.06;5011305;28;20026;-81
2021/10/10 00:46:21;;;;;;;33.00;19.75;;;;;;;12.54;80.75;102792.38;5012259;28;20045;-82
2021/10/10 00:48:46;;;;;;;31.65;19.13;;;;;;;12.54;80.70;102812.34;5012126;28;20024;-82
2021/10/10 00:51:12;;;;;;;28.60;18.45;;;;;;;12.54;80.45;102804.16;5012159;28;20017;-82
2021/10/10 00:53:38;;;;;;;30.25;18.13;;;;;;;12.54;80.44;102797.84;5010321;28;20034;-82
2021/10/10 00:56:05;;;;;;;26.88;16.40;;;;;;;12.54;80.30;102798.69;4980427;28;20032;-82
2021/10/10 00:58:31;;;;;;;37.40;17.73;;;;;;;12.55;80.45;102794.88;4977604;28;20033;-81
2021/10/10 01:00:56;;;;;;;32.20;18.33;;;;;;;12.56;80.13;102802.03;4977741;28;20499;-82
2021/10/10 01:03:22;;;;;;;32.85;19.63;;;;;;;12.56;80.23;102795.72;5011011;28;20029;-82
2021/10/10 01:05:48;;;;;;;32.00;19.17;;;;;;;12.54;80.37;102795.94;5010361;28;20034;-82
2021/10/10 01:08:17;;;;;;;28.70;17.10;;;;;;;12.53;80.27;102796.19;4994359;28;20370;-81
2021/10/10 01:10:46;;;;;;;30.95;19.58;;;;;;;12.53;79.91;102785.25;5011627;28;20153;-82
2021/10/10 01:13:19;;;;;;;31.33;18.80;;;;;;;12.52;79.98;102784.44;5011539;28;20109;-82
2021/10/10 01:15:45;;;;;;;29.63;18.73;;;;;;;12.52;80.11;102776.22;4993748;28;20050;-82
2021/10/10 01:18:11;;;;;;;35.65;18.73;;;;;;;12.52;79.79;102772.63;4992368;28;20037;-82
2021/10/10 01:20:46;;;;;;;34.80;18.80;;;;;;;12.51;79.92;102770.97;5012047;28;20440;-82
2021/10/10 01:23:11;;;;;;;31.10;17.75;;;;;;;12.52;79.84;102778.94;4991484;28;20096;-82
2021/10/10 01:25:37;;;;;;;30.35;19.40;;;;;;;12.52;79.66;102772.63;5011365;28;20532;-82
2021/10/10 01:28:03;;;;;;;34.53;21.20;;;;;;;12.53;79.34;102768.84;4995557;28;20072;-82
2021/10/10 01:30:28;;;;;;;32.10;18.52;;;;;;;12.53;79.55;102774.31;4992499;28;20101;-81
2021/10/10 01:32:54;;;;;;;34.00;18.48;;;;;;;12.53;79.81;102772.41;5010255;28;20030;-82
2021/10/10 01:35:20;;;;;;;30.58;18.48;;;;;;;12.51;79.92;102770.97;4979367;28;20025;-82
2021/10/10 01:37:45;;;;;;;31.55;17.45;;;;;;;12.49;79.87;102764.91;4995629;28;20526;-82
2021/10/10 01:40:12;;;;;;;32.55;19.35;;;;;;;12.49;79.84;102767.63;5013756;28;20485;-82
2021/10/10 01:42:37;;;;;;;27.63;17.33;;;;;;;12.49;79.82;102759.41;4986370;28;20026;-82
2021/10/10 01:45:03;;;;;;;30.30;18.00;;;;;;;12.48;79.80;102755.84;5013815;28;20496;-82
2021/10/10 01:47:29;;;;;;;36.78;18.75;;;;;;;12.48;79.78;102752.28;5012494;28;20053;-82
2021/10/10 01:49:54;;;;;;;33.97;18.65;;;;;;;12.46;80.07;102747.06;4991517;28;20536;-82
2021/10/10 01:52:20;;;;;;;31.05;17.48;;;;;;;12.47;80.22;102759.69;5011738;28;20477;-82
2021/10/10 01:54:45;;;;;;;25.08;15.32;;;;;;;12.46;80.07;102748.97;5011435;28;20033;-82
2021/10/10 01:57:10;;;;;;;28.95;17.17;;;;;;;12.48;80.02;102750.38;5013319;28;20080;-83
2021/10/10 01:59:37;;;;;;;28.95;16.95;;;;;;;12.49;80.29;102752.03;5011814;28;20029;-81
2021/10/10 02:02:02;;;;;;;27.85;16.58;;;;;;;12.51;80.39;102746.34;5012503;28;20022;-81
2021/10/10 02:04:28;;;;;;;30.88;16.50;;;;;;;12.50;80.62;102733.75;5010686;28;20361;-81
2021/10/10 02:06:53;;;;;;;30.27;17.52;;;;;;;12.52;80.82;102739.78;4978246;28;20030;-81
2021/10/10 02:09:19;;;;;;;28.63;18.23;;;;;;;12.51;81.03;102727.19;4977364;28;20037;-81
2021/10/10 02:11:45;;;;;;;24.25;14.68;;;;;;;12.47;80.91;102721.38;5012385;28;20025;-81
2021/10/10 02:14:11;;;;;;;26.35;15.25;;;;;;;12.45;81.23;102731.72;4984121;28;20080;-81
2021/10/10 02:16:36;;;;;;;23.17;13.68;;;;;;;12.43;81.64;102731.94;4991602;28;20429;-81
2021/10/10 02:19:02;;;;;;;24.88;14.77;;;;;;;12.43;81.31;102721.00;4993742;28;20042;-82
2021/10/10 02:21:27;;;;;;;29.88;16.63;;;;;;;12.42;81.02;102719.34;5013110;28;20040;-82
2021/10/10 02:23:52;;;;;;;24.85;14.13;;;;;;;12.39;81.55;102717.09;5011617;28;20400;-81
2021/10/10 02:26:18;;;;;;;25.50;13.50;;;;;;;12.37;81.11;102716.50;4994026;28;20401;-82
2021/10/10 02:28:44;;;;;;;19.67;13.23;;;;;;;12.36;81.06;102708.53;4993696;28;20030;-82
2021/10/10 02:31:10;;;;;;;26.63;14.60;;;;;;;12.32;81.08;102702.69;5012392;28;20033;-81
2021/10/10 02:33:35;;;;;;;22.50;13.35;;;;;;;12.31;81.11;102706.50;4993118;28;20030;-81
2021/10/10 02:36:00;;;;;;;25.05;12.60;;;;;;;12.31;81.40;102703.78;5011756;28;20041;-81
2021/10/10 02:38:26;;;;;;;22.10;13.38;;;;;;;12.32;81.79;102704.59;4993936;28;20030;-81
2021/10/10 02:40:52;;;;;;;22.60;14.00;;;;;;;12.31;81.58;102697.47;5013050;28;20037;-81
2021/10/10 02:43:18;;;;;;;27.05;13.30;;;;;;;12.30;81.54;102696.63;5010729;28;20052;-81
2021/10/10 02:45:43;;;;;;;23.13;12.70;;;;;;;12.27;81.21;102685.34;5011899;28;20477;-81
2021/10/10 02:48:09;;;;;;;18.88;11.57;;;;;;;12.26;80.70;102692.72;5011748;28;20014;-81
2021/10/10 02:50:35;;;;;;;20.17;10.43;;;;;;;12.24;80.09;102688.56;5012682;28;20029;-81
2021/10/10 02:53:01;;;;;;;18.50;11.18;;;;;;;12.21;79.91;102685.22;5010607;28;20108;-81
2021/10/10 02:55:26;;;;;;;17.63;11.35;;;;;;;12.18;79.87;102682.97;5012020;28;20389;-81
2021/10/10 02:57:51;;;;;;;22.10;11.63;;;;;;;12.13;79.68;102673.81;5011373;28;20037;-81
2021/10/10 03:00:17;;;;;;;20.88;11.75;;;;;;;12.08;79.71;102679.97;4992359;28;20034;-81
2021/10/10 03:02:42;;;;;;;17.55;10.80;;;;;;;12.07;79.78;102678.31;5011056;28;20072;-81
2021/10/10 03:05:08;;;;;;;21.13;12.77;;;;;;;12.03;79.99;102676.28;4999019;28;20026;-81
2021/10/10 03:07:33;;;;;;;23.95;12.43;;;;;;;12.01;79.87;102667.53;5011774;28;20034;-81
2021/10/10 03:09:59;;;;;;;20.73;11.52;;;;;;;11.98;79.74;102661.44;5011652;28;20026;-81
2021/10/10 03:12:24;;;;;;;26.65;11.82;;;;;;;11.99;79.99;102665.00;4994335;28;20021;-81
2021/10/10 03:14:49;;;;;;;20.58;11.88;;;;;;;11.99;79.81;102657.63;5011135;28;20049;-81
2021/10/10 03:17:15;;;;;;;21.08;12.82;;;;;;;11.95;80.00;102653.72;5012367;28;20029;-81
2021/10/10 03:19:40;;;;;;;24.17;12.23;;;;;;;11.93;79.85;102652.28;5011485;28;20030;-81
2021/10/10 03:22:05;;;;;;;21.92;12.35;;;;;;;11.90;79.97;102642.66;5009296;28;20037;-81
2021/10/10 03:24:31;;;;;;;21.67;11.95;;;;;;;11.89;80.18;102654.66;5010146;28;20029;-81
2021/10/10 03:26:56;;;;;;;22.25;11.73;;;;;;;11.88;80.28;102635.78;5015425;28;20469;-81
2021/10/10 03:29:22;;;;;;;21.98;12.85;;;;;;;11.86;80.32;102637.91;5015150;28;20022;-81
2021/10/10 03:31:47;;;;;;;25.08;13.25;;;;;;;11.84;80.38;102629.94;5011199;28;20061;-82
2021/10/10 03:34:13;;;;;;;20.83;13.00;;;;;;;11.82;80.63;102632.06;5014916;28;20033;-80
2021/10/10 03:36:39;;;;;;;22.15;12.38;;;;;;;11.81;80.74;102624.91;5014092;28;20057;-80
2021/10/10 03:39:04;;;;;;;20.17;12.32;;;;;;;11.83;80.73;102632.88;5014858;28;20330;-80
2021/10/10 03:41:30;;;;;;;21.30;13.57;;;;;;;11.85;81.07;102623.38;5014425;28;20036;-81
2021/10/10 03:43:55;;;;;;;23.48;12.50;;;;;;;11.84;80.99;102624.47;5014488;28;20022;-81
2021/10/10 03:46:21;;;;;;;22.73;13.57;;;;;;;11.83;81.29;102622.78;5015577;28;20037;-81
2021/10/10 03:48:46;;;;;;;24.45;13.98;;;;;;;11.85;81.47;102620.66;5014800;28;20029;-81
2021/10/10 03:51:11;;;;;;;23.08;13.30;;;;;;;11.87;81.34;102618.53;5014547;28;20535;-81
2021/10/10 03:56:25;;;;;;;27.05;13.82;;;;;;;11.87;80.98;102607.63;4995244;28;20073;-81
2021/10/10 03:58:51;;;;;;;24.13;14.35;;;;;;;11.88;81.22;102611.19;5014492;28;20084;-81
2021/10/10 04:01:16;;;;;;;25.13;13.40;;;;;;;11.87;80.85;102604.06;5014888;28;20087;-81
2021/10/10 04:03:42;;;;;;;23.17;13.73;;;;;;;11.86;81.07;102607.84;5014769;28;20026;-81
2021/10/10 04:06:07;;;;;;;19.80;11.20;;;;;;;11.85;81.05;102609.72;5014167;28;20026;-81
2021/10/10 04:08:34;;;;;;;22.08;13.60;;;;;;;11.86;81.02;102599.63;5012326;28;20044;-81
2021/10/10 04:10:59;;;;;;;16.52;10.45;;;;;;;11.87;81.05;102606.78;5006982;28;20030;-82
2021/10/10 04:13:25;;;;;;;23.55;12.23;;;;;;;11.87;80.98;102585.75;4997492;28;20076;-82
2021/10/10 04:15:50;;;;;;;19.25;12.02;;;;;;;11.85;80.59;102587.03;5013166;28;20064;-82
2021/10/10 04:18:17;;;;;;;20.63;12.18;;;;;;;11.85;79.93;102587.03;4996313;28;20089;-82
2021/10/10 04:20:42;;;;;;;18.33;11.27;;;;;;;11.88;79.58;102579.19;4996461;28;20040;-81
2021/10/10 04:23:08;;;;;;;22.00;11.90;;;;;;;11.88;79.69;102568.28;5014159;28;20026;-81
2021/10/10 04:25:33;;;;;;;18.05;10.85;;;;;;;11.90;79.80;102562.56;5014383;28;20025;-81
2021/10/10 04:27:58;;;;;;;18.08;11.38;;;;;;;11.89;79.66;102564.44;5013699;28;20473;-83
2021/10/10 04:30:24;;;;;;;22.58;10.88;;;;;;;11.90;80.02;102566.13;5012438;28;20362;-82
2021/10/10 04:32:50;;;;;;;19.20;11.68;;;;;;;11.92;79.23;102572.19;4995806;28;20056;-80
2021/10/10 04:35:15;;;;;;;18.30;12.13;;;;;;;11.95;79.48;102560.78;4994903;28;20029;-80
2021/10/10 04:37:41;;;;;;;18.85;11.55;;;;;;;11.95;78.92;102541.66;4996289;28;20507;-81
2021/10/10 04:40:07;;;;;;;21.15;11.82;;;;;;;11.96;79.25;102556.97;4992082;28;20021;-81
2021/10/10 04:42:34;;;;;;;18.27;11.90;;;;;;;11.97;79.64;102547.69;5014894;28;20030;-81
2021/10/10 04:44:59;;;;;;;17.83;10.27;;;;;;;11.97;79.90;102544.97;4977630;28;20062;-81
2021/10/10 04:47:25;;;;;;;19.17;11.40;;;;;;;11.97;80.07;102552.31;5009180;28;20394;-81
2021/10/10 04:49:52;;;;;;;18.50;10.70;;;;;;;11.98;80.02;102543.91;5011893;28;20070;-81
2021/10/10 04:52:18;;;;;;;16.45;10.98;;;;;;;11.98;80.31;102537.59;5011944;28;20499;-81
2021/10/10 04:54:47;;;;;;;18.98;11.60;;;;;;;12.00;80.51;102532.72;5012528;28;20092;-81
2021/10/10 04:57:14;;;;;;;20.75;10.90;;;;;;;11.99;80.69;102542.81;4997056;28;20021;-80
2021/10/10 04:59:40;;;;;;;23.63;10.20;;;;;;;12.00;80.61;102532.72;4995455;28;20335;-81
2021/10/10 05:02:07;;;;;;;22.88;11.27;;;;;;;12.04;80.50;102527.63;5014086;28;20036;-81
2021/10/10 05:04:32;;;;;;;20.65;11.48;;;;;;;12.06;80.38;102528.19;4986166;28;20026;-80
2021/10/10 05:06:57;;;;;;;15.88;11.38;;;;;;;12.05;80.50;102534.72;4996530;28;20500;-80
2021/10/10 05:09:23;;;;;;;17.83;10.75;;;;;;;12.08;80.63;102520.56;5013155;28;20026;-81
2021/10/10 05:11:48;;;;;;;14.90;9.63;;;;;;;12.09;80.30;102525.00;5009008;28;20495;-81
2021/10/10 05:14:13;;;;;;;17.15;9.57;;;;;;;12.10;80.40;102516.53;5013301;28;20025;-81
2021/10/10 05:16:39;;;;;;;19.85;9.45;;;;;;;12.12;80.18;102516.31;4994223;28;20042;-81
2021/10/10 05:19:04;;;;;;;18.27;11.82;;;;;;;12.14;80.21;102519.59;5011881;28;20029;-81
2021/10/10 05:21:30;;;;;;;12.52;9.57;;;;;;;12.17;79.85;102508.22;5013414;28;20084;-80
2021/10/10 05:23:56;;;;;;;21.13;10.90;;;;;;;12.18;80.06;102504.38;4991791;28;20030;-80
2021/10/10 05:26:22;;;;;;;22.92;11.93;;;;;;;12.19;80.10;102501.44;4987218;28;20042;-81
2021/10/10 05:28:47;;;;;;;21.52;10.95;;;;;;;12.20;80.34;102496.78;5010052;28;20039;-81
2021/10/10 05:31:12;;;;;;;17.33;10.85;;;;;;;12.21;80.05;102495.69;5003922;28;20029;-81
2021/10/10 05:33:38;;;;;;;20.08;10.65;;;;;;;12.22;80.04;102500.06;4995262;28;20033;-81
2021/10/10 05:36:03;;;;;;;18.48;10.32;;;;;;;12.21;79.94;102492.97;5013568;28;20026;-81
2021/10/10 05:38:29;;;;;;;19.27;9.90;;;;;;;12.24;79.49;102495.19;5008450;28;20026;-80
2021/10/10 05:40:54;;;;;;;18.63;10.93;;;;;;;12.27;79.29;102491.97;5013270;28;20402;-81
2021/10/10 05:43:19;;;;;;;15.18;9.38;;;;;;;12.30;79.11;102494.22;4996427;28;20392;-81
2021/10/10 05:45:45;;;;;;;23.27;10.60;;;;;;;12.31;78.69;102486.88;5012070;28;20477;-81
2021/10/10 05:48:10;;;;;;;11.00;8.43;;;;;;;12.34;78.33;102491.84;5012657;28;20046;-81
2021/10/10 05:50:36;;;;;;;13.48;9.55;;;;;;;12.37;78.38;102485.88;4995214;28;20037;-80
2021/10/10 05:53:07;;;;;;;17.08;9.70;;;;;;;12.39;78.14;102489.22;5013097;28;20193;-81
2021/10/10 05:55:34;;;;;;;18.50;10.52;;;;;;;12.41;78.31;102487.91;5011468;28;20060;-81
2021/10/10 05:58:03;;;;;;;13.55;9.70;;;;;;;12.42;78.22;102483.25;5012848;28;20021;-80
2021/10/10 06:00:28;;;;;;;15.35;9.15;;;;;;;12.43;78.21;102491.19;4994373;28;20049;-80
2021/10/10 06:02:53;;;;;;;15.15;10.13;;;;;;;12.46;78.36;102489.06;5012295;28;20040;-81
2021/10/10 06:05:19;;;;;;;15.27;9.95;;;;;;;12.45;78.17;102493.72;4994140;28;20018;-81
2021/10/10 06:07:44;;;;;;;18.35;10.07;;;;;;;12.47;78.21;102490.72;5011272;28;20026;-81
2021/10/10 06:10:10;;;;;;;17.60;9.00;;;;;;;12.48;77.92;102484.19;4988375;28;20033;-82
2021/10/10 06:12:36;;;;;;;21.98;10.65;;;;;;;12.48;77.86;102478.72;5013040;28;20321;-81
2021/10/10 06:15:04;;;;;;;24.73;10.35;;;;;;;12.48;77.81;102487.75;5009667;28;20077;-81
2021/10/10 06:17:33;;;;;;;13.38;9.05;;;;;;;12.50;77.51;102476.56;4994918;28;20037;-81
2021/10/10 06:19:59;;;;;;;14.48;9.52;;;;;;;12.51;77.48;102475.47;4987277;28;20481;-81
2021/10/10 06:22:24;;;;;;;15.75;8.88;;;;;;;12.52;77.65;102482.59;4994388;28;20033;-82
2021/10/10 06:24:49;;;;;;;16.55;9.63;;;;;;;12.52;77.32;102477.97;4994187;28;20033;-82
2021/10/10 06:27:17;;;;;;;18.20;9.43;;;;;;;12.54;77.76;102475.00;4990559;28;20125;-82
2021/10/10 06:29:46;;;;;;;19.77;9.25;;;;;;;12.56;77.12;102475.56;4977982;28;20048;-81
2021/10/10 06:32:11;;;;;;;17.98;9.27;;;;;;;12.57;77.41;102479.97;5010381;28;20546;-82
2021/10/10 06:34:36;;;;;;;15.35;9.65;;;;;;;12.60;77.47;102463.06;5011848;28;20033;-82
2021/10/10 06:37:02;;;;;;;15.75;9.32;;;;;;;12.58;77.30;102471.53;5010181;28;20030;-81
2021/10/10 06:39:27;;;;;;;16.63;10.00;;;;;;;12.56;77.25;102472.84;4984496;28;20028;-82
2021/10/10 06:41:53;;;;;;;17.50;8.93;;;;;;;12.54;76.69;102469.50;5008863;28;20045;-82
2021/10/10 06:44:18;;;;;;;12.73;8.70;;;;;;;12.53;76.98;102476.06;5010592;28;20022;-82
2021/10/10 06:46:44;;;;;;;13.85;9.07;;;;;;;12.51;76.89;102465.38;5012003;28;20038;-82
2021/10/10 06:49:11;;;;;;;17.80;9.40;;;;;;;12.52;77.00;102472.50;4991977;28;20102;-81
2021/10/10 06:51:36;;;;;;;15.73;8.55;;;;;;;12.52;77.00;102471.66;4973256;28;20038;-81
2021/10/10 06:54:02;;;;;;;13.57;9.07;;;;;;;12.52;76.79;102468.91;4986386;28;20030;-82
2021/10/10 06:56:28;;;;;;;15.27;8.85;;;;;;;12.52;76.87;102471.66;5009310;28;20393;-81
2021/10/10 06:58:54;;;;;;;13.70;9.02;;;;;;;12.52;76.99;102466.19;5012229;28;20028;-81
2021/10/10 07:01:19;;;;;;;14.02;8.73;;;;;;;12.51;77.05;102464.53;5013812;28;20029;-79
2021/10/10 07:03:45;;;;;;;14.13;8.80;;;;;;;12.52;76.83;102460.72;5014687;28;20036;-81
2021/10/10 07:06:10;;;;;;;15.45;10.10;;;;;;;12.49;76.87;102458.47;5013527;28;20025;-81
2021/10/10 07:08:35;;;;;;;16.13;9.85;;;;;;;12.50;77.26;102469.19;4993425;28;20021;-81
2021/10/10 07:11:01;;;;;;;18.17;9.30;;;;;;;12.48;77.01;102456.81;5009440;28;20042;-81
2021/10/10 07:13:26;;;;;;;14.45;9.70;;;;;;;12.48;76.96;102437.69;4997907;28;20080;-81
2021/10/10 07:15:55;;;;;;;12.48;8.48;;;;;;;12.46;77.03;102443.38;5013416;28;20046;-82
2021/10/10 07:18:30;;;;;;;15.90;9.38;;;;;;;12.47;77.20;102447.78;5016131;28;20037;-82
2021/10/10 07:23:55;;;;;;;17.90;9.23;;;;;;;12.51;77.45;102440.75;5013531;28;20014;-82
2021/10/10 07:26:19;;;;;;;15.43;9.25;;;;;;;12.53;77.33;102435.03;5006161;28;20030;-83
2021/10/10 07:28:46;;;;;;;16.15;9.38;;;;;;;12.55;77.24;102446.53;5011689;28;20080;-83
2021/10/10 07:31:11;;;;;;;15.68;9.00;;;;;;;12.55;77.07;102439.19;5004976;28;20030;-83
2021/10/10 07:33:37;;;;;;;19.20;9.32;;;;;;;12.55;77.08;102441.06;4993433;28;20036;-83
2021/10/10 07:36:02;;;;;;;14.70;9.18;;;;;;;12.58;76.93;102437.88;5013632;28;20042;-83
2021/10/10 07:38:28;;;;;;;13.60;8.68;;;;;;;12.59;76.89;102437.59;4998816;28;20105;-83
2021/10/10 07:40:53;;;;;;;16.73;9.15;;;;;;;12.60;76.38;102435.69;5013505;28;20026;-83
2021/10/10 07:43:21;;;;;;;13.90;7.97;;;;;;;12.61;76.38;102437.38;4996112;28;20044;-83
2021/10/10 07:45:47;;;;;;;17.23;8.27;;;;;;;12.62;76.15;102436.28;5013743;28;20084;-81
2021/10/10 07:48:12;;;;;;;11.77;7.72;;;;;;;12.62;75.83;102436.28;5015753;28;20443;-82
2021/10/10 07:50:39;;;;;;;14.40;8.35;;;;;;;12.63;75.73;102429.72;5015207;28;20034;-82
2021/10/10 07:53:05;;;;;;;20.30;8.60;;;;;;;12.67;75.83;102436.38;5002330;28;20136;-81
2021/10/10 07:55:31;;;;;;;18.50;9.05;;;;;;;12.68;75.52;102432.53;5011720;28;20053;-80
2021/10/10 07:57:57;;;;;;;15.48;8.35;;;;;;;12.70;75.27;102435.03;4998008;28;20041;-80
2021/10/10 08:00:23;;;;;;;14.73;7.82;;;;;;;12.72;74.37;102447.41;5013220;28;20034;-81
2021/10/10 08:02:52;;;;;;;15.27;8.40;;;;;;;12.75;74.12;102441.44;5014977;28;20030;-81
2021/10/10 08:05:18;;;;;;;12.43;7.13;;;;;;;12.76;73.48;102450.47;5007920;28;20038;-81
2021/10/10 08:07:45;;;;;;;18.33;7.50;;;;;;;12.78;73.23;102442.84;5015604;28;20030;-81
2021/10/10 08:10:10;;;;;;;11.73;7.43;;;;;;;12.81;72.97;102448.66;5011327;28;20022;-80
2021/10/10 08:12:37;;;;;;;14.50;7.45;;;;;;;12.86;72.82;102437.78;5013076;28;20036;-83
2021/10/10 08:15:03;;;;;;;13.63;7.70;;;;;;;12.92;72.93;102443.34;5014289;28;20049;-80
2021/10/10 08:17:28;;;;;;;11.75;7.45;;;;;;;13.00;72.69;102440.19;5015332;28;20025;-81
2021/10/10 08:19:54;;;;;;;11.65;7.47;;;;;;;13.09;72.19;102438.69;4996019;28;20030;-81
2021/10/10 08:22:19;;;;;;;11.23;7.07;;;;;;;13.14;71.65;102430.56;4993755;28;20025;-81
2021/10/10 08:24:45;;;;;;;14.63;7.07;;;;;;;13.19;71.48;102432.53;5014141;28;20033;-81
2021/10/10 08:27:10;;;;;;;10.23;6.68;;;;;;;13.20;71.00;102418.59;5007815;28;20066;-81
2021/10/10 08:29:37;;;;;;;14.73;7.35;;;;;;;13.21;70.98;102420.25;4992926;28;20025;-81
2021/10/10 08:32:02;;;;;;;11.60;7.35;;;;;;;13.22;70.71;102421.09;5007332;28;20543;-81
2021/10/10 08:34:28;;;;;;;12.45;7.97;;;;;;;13.22;70.85;102416.44;5012681;28;20045;-81
2021/10/10 08:36:54;;;;;;;16.45;7.35;;;;;;;13.27;71.19;102408.31;5012149;28;20033;-81
2021/10/10 08:39:24;;;;;;;12.68;7.65;;;;;;;13.30;70.75;102416.03;5014472;28;20469;-81
2021/10/10 08:41:53;;;;;;;12.15;7.80;;;;;;;13.30;70.52;102410.56;4995410;28;20026;-80
2021/10/10 08:44:19;;;;;;;17.45;8.40;;;;;;;13.33;70.44;102412.78;4993989;28;20389;-81
2021/10/10 08:46:45;;;;;;;12.55;7.15;;;;;;;13.34;69.96;102405.41;4995745;28;20480;-81
2021/10/10 08:49:11;;;;;;;12.75;8.18;;;;;;;13.37;69.95;102412.28;5013342;28;20022;-81
2021/10/10 08:51:38;;;;;;;11.27;7.78;;;;;;;13.38;69.76;102409.28;5013695;28;20485;-81
2021/10/10 08:54:04;;;;;;;11.07;7.22;;;;;;;13.41;69.55;102400.56;4997203;28;20512;-81
2021/10/10 08:56:29;;;;;;;11.38;7.30;;;;;;;13.46;69.55;102406.13;5011249;28;20026;-81
2021/10/10 08:58:54;;;;;;;10.35;6.68;;;;;;;13.49;69.22;102411.09;4993558;28;20041;-80
2021/10/10 09:01:28;;;;;;;12.55;8.35;;;;;;;13.58;69.44;102436.13;4993944;28;20041;-81
2021/10/10 09:03:54;;;;;;;11.93;7.15;;;;;;;13.61;69.04;102410.97;5012750;28;20045;-81
2021/10/10 09:06:19;;;;;;;11.23;6.80;;;;;;;13.64;69.21;102423.31;4993767;28;20105;-81
2021/10/10 09:08:44;;;;;;;12.65;7.47;;;;;;;13.66;69.00;102416.50;4992907;28;20138;-81
2021/10/10 09:11:11;;;;;;;11.13;7.70;;;;;;;13.66;68.43;102402.81;5010404;28;20037;-83
2021/10/10 09:13:38;;;;;;;12.18;7.15;;;;;;;13.63;68.19;102403.31;4993568;28;20050;-80
2021/10/10 09:16:05;;;;;;;13.27;7.45;;;;;;;13.61;67.96;102413.69;5009742;28;20042;-81
2021/10/10 09:18:40;;;;;;;11.73;7.35;;;;;;;13.58;67.89;102403.25;4993831;28;20080;-80
2021/10/10 09:21:17;;;;;;;12.13;8.10;;;;;;;13.58;68.46;102402.44;4975298;28;20054;-80
2021/10/10 09:23:45;;;;;;;13.77;7.70;;;;;;;13.54;68.54;102396.63;4990452;28;20044;-80
2021/10/10 09:26:10;;;;;;;13.20;7.40;;;;;;;13.54;68.01;102396.63;4986660;28;20064;-80
2021/10/10 09:28:36;;;;;;;11.07;6.65;;;;;;;13.54;67.88;102391.97;5009588;28;20380;-80
2021/10/10 09:31:05;;;;;;;12.02;7.18;;;;;;;13.55;68.00;102387.31;5007356;28;20040;-80
2021/10/10 09:33:37;;;;;;;10.43;6.55;;;;;;;13.59;68.01;102388.47;5005618;28;20064;-82
2021/10/10 09:36:09;;;;;;;9.52;7.20;;;;;;;13.64;68.18;102385.81;5006394;28;20033;-81
2021/10/10 09:38:49;;;;;;;10.82;6.80;;;;;;;13.71;68.03;102389.16;4989079;28;20473;-80
2021/10/10 09:44:05;;;;;;;14.10;7.43;;;;;;;13.74;67.93;102377.69;5007031;28;20121;-80
2021/10/10 09:46:31;;;;;;;12.20;7.30;;;;;;;13.73;67.73;102377.97;5001641;28;20053;-81
2021/10/10 09:48:59;;;;;;;11.73;7.57;;;;;;;13.77;67.81;102376.34;4986946;28;20477;-81
2021/10/10 09:51:35;;;;;;;13.02;7.00;;;;;;;13.81;68.26;102365.72;5006566;28;20030;-81
2021/10/10 09:54:02;;;;;;;11.52;6.65;;;;;;;13.80;67.38;102372.28;5003682;28;20026;-81
2021/10/10 09:56:28;;;;;;;11.90;7.00;;;;;;;13.82;67.72;102375.59;4988216;28;20036;-80
2021/10/10 09:58:54;;;;;;;14.63;6.93;;;;;;;13.84;67.85;102370.69;4970676;28;20559;-81
2021/10/10 10:01:22;;;;;;;19.52;8.18;;;;;;;13.82;67.51;102359.97;4987357;28;20112;-80
2021/10/10 10:04:07;;;;;;;11.40;7.70;;;;;;;13.82;67.76;102359.13;5004023;28;20025;-81
2021/10/10 10:06:37;;;;;;;10.35;6.50;;;;;;;13.74;67.33;102347.53;4988323;28;20104;-81
2021/10/10 10:09:07;;;;;;;14.63;6.63;;;;;;;13.69;67.67;102350.22;5004796;28;20022;-81
2021/10/10 10:11:34;;;;;;;12.15;7.05;;;;;;;13.68;67.93;102334.03;5007269;28;20481;-81
2021/10/10 10:14:01;;;;;;;12.55;7.22;;;;;;;13.63;67.66;102344.94;4970294;28;20080;-85
2021/10/10 10:16:27;;;;;;;15.48;7.10;;;;;;;13.62;67.84;102335.91;4987144;28;20049;-83
2021/10/10 10:18:54;;;;;;;10.77;7.57;;;;;;;13.55;67.38;102333.34;5004145;28;20393;-83
2021/10/10 10:21:19;;;;;;;20.02;8.02;;;;;;;13.51;67.85;102328.66;5004096;28;20034;-84
2021/10/10 10:23:46;;;;;;;11.95;7.40;;;;;;;13.49;67.88;102333.53;4969754;28;20037;-83
2021/10/10 10:26:11;;;;;;;13.85;8.18;;;;;;;13.49;68.11;102333.53;4988206;28;20045;-83
2021/10/10 10:28:37;;;;;;;11.80;6.93;;;;;;;13.48;68.45;102323.69;4988079;28;20136;-83
2021/10/10 10:31:02;;;;;;;11.23;7.03;;;;;;;13.43;68.17;102318.97;4973149;28;20472;-83
2021/10/10 10:33:31;;;;;;;12.68;7.25;;;;;;;13.38;68.89;102337.25;4969558;28;20030;-82
2021/10/10 10:35:56;;;;;;;12.07;6.60;;;;;;;13.36;68.61;102318.31;4987124;28;20057;-83
2021/10/10 10:38:48;;;;;;;15.55;7.70;;;;;;;13.32;68.25;102323.47;4985059;28;20026;-83
2021/10/10 10:41:45;;;;;;;10.25;7.20;;;;;;;13.34;68.30;102325.97;4984048;28;20038;-83
2021/10/10 10:44:36;;;;;;;13.90;7.50;;;;;;;13.46;68.70;102323.09;5003033;28;20118;-82
2021/10/10 10:47:25;;;;;;;14.25;7.07;;;;;;;13.47;68.71;102319.25;5004716;28;20034;-83
2021/10/10 10:49:54;;;;;;;16.20;8.02;;;;;;;13.45;68.44;102313.19;4972201;28;20365;-82
2021/10/10 10:52:26;;;;;;;16.10;7.25;;;;;;;13.43;68.18;102308.00;5006602;28;20033;-83
2021/10/10 10:54:52;;;;;;;10.00;7.07;;;;;;;13.40;67.99;102313.16;5006370;28;20037;-82
2021/10/10 10:57:39;;;;;;;14.35;6.78;;;;;;;13.40;67.93;102304.94;5004170;28;20149;-83
2021/10/10 11:00:20;;;;;;;12.35;8.35;;;;;;;13.49;68.16;102306.13;4987769;28;20026;-83
2021/10/10 11:02:58;;;;;;;13.63;7.93;;;;;;;13.56;68.16;102306.78;4987778;28;20037;-81
2021/10/10 11:05:36;;;;;;;12.55;7.38;;;;;;;13.59;67.75;102297.22;5004620;28;20469;-83
2021/10/10 11:08:16;;;;;;;12.52;6.90;;;;;;;13.67;67.84;102286.63;5002434;28;20030;-83
2021/10/10 11:11:03;;;;;;;10.13;6.47;;;;;;;13.70;67.74;102301.72;5007275;28;20030;-83
2021/10/10 11:13:31;;;;;;;14.20;7.55;;;;;;;13.68;66.75;102304.72;5009763;28;20109;-81
2021/10/10 11:15:57;;;;;;;10.88;5.95;;;;;;;13.69;66.93;102300.06;4995106;28;20061;-82
2021/10/10 11:18:27;;;;;;;12.57;6.97;;;;;;;13.71;66.59;102306.13;5011175;28;20022;-82